createdAt,value
2019-02-26T00:03:19.880Z,13.37
2019-02-26T00:08:05.888Z,11.20
2019-02-26T00:12:51.614Z,11.53
2019-02-26T00:17:40.550Z,11.60
2019-02-26T00:22:24.692Z,10.87
2019-02-26T00:27:10.450Z,10.47
2019-02-26T00:31:57.682Z,11.10
2019-02-26T00:36:43.459Z,11.23
2019-02-26T00:41:30.851Z,11.37
2019-02-26T00:46:16.477Z,12.13
2019-02-26T00:51:03.121Z,12.60
2019-02-26T00:55:49.028Z,11.10
2019-02-26T01:00:35.482Z,10.23
2019-02-26T01:05:21.250Z,9.33
2019-02-26T01:10:07.837Z,9.50
2019-02-26T01:14:53.551Z,10.20
2019-02-26T01:19:40.713Z,9.63
2019-02-26T01:24:28.167Z,10.80
2019-02-26T01:29:18.589Z,10.93
2019-02-26T01:34:01.494Z,8.87
2019-02-26T01:38:49.278Z,9.07
2019-02-26T01:43:34.556Z,9.47
2019-02-26T01:48:20.233Z,8.40
2019-02-26T01:53:06.011Z,7.63
2019-02-26T01:57:51.728Z,7.90
2019-02-26T02:02:37.511Z,7.70
2019-02-26T02:07:24.268Z,7.30
2019-02-26T02:12:11.026Z,6.07
2019-02-26T02:16:57.029Z,4.57
2019-02-26T02:21:43.110Z,5.07
2019-02-26T02:26:28.884Z,6.33
2019-02-26T02:31:14.586Z,5.63
2019-02-26T02:36:00.313Z,5.10
2019-02-26T02:40:46.949Z,4.60
2019-02-26T02:45:33.344Z,4.17
2019-02-26T02:50:19.039Z,4.90
2019-02-26T02:55:06.784Z,6.23
2019-02-26T02:59:54.473Z,5.33
2019-02-26T03:04:39.926Z,5.47
2019-02-26T03:09:25.667Z,6.00
2019-02-26T03:14:13.368Z,7.57
2019-02-26T03:18:58.647Z,7.23
2019-02-26T03:23:45.594Z,7.50
2019-02-26T03:28:34.849Z,8.23
2019-02-26T03:33:18.665Z,9.30
2019-02-26T03:38:04.390Z,9.20
2019-02-26T03:42:50.105Z,9.53
2019-02-26T03:47:39.999Z,9.20
2019-02-26T03:52:23.149Z,9.23
2019-02-26T03:57:11.315Z,8.63
2019-02-26T04:01:56.663Z,9.10
2019-02-26T04:06:45.855Z,10.20
2019-02-26T04:11:29.755Z,9.93
2019-02-26T04:16:15.417Z,9.70
2019-02-26T04:21:05.713Z,11.57
2019-02-26T04:26:34.429Z,11.77
2019-02-26T04:31:54.771Z,10.73
2019-02-26T04:36:53.679Z,8.10
2019-02-26T04:41:50.271Z,9.20
2019-02-26T04:46:46.873Z,9.20
2019-02-26T04:51:34.245Z,10.33
2019-02-26T04:56:19.944Z,9.50
2019-02-26T05:01:08.016Z,10.97
2019-02-26T05:05:56.293Z,10.57
2019-02-26T05:10:41.161Z,9.13
2019-02-26T05:15:30.025Z,8.53
2019-02-26T05:20:16.536Z,8.97
2019-02-26T05:25:01.765Z,9.67
2019-02-26T05:29:49.025Z,12.87
2019-02-26T05:34:34.819Z,10.77
2019-02-26T05:39:21.714Z,8.27
2019-02-26T05:44:10.559Z,9.33
2019-02-26T05:48:55.376Z,9.33
2019-02-26T05:53:41.292Z,11.90
2019-02-26T05:58:27.327Z,13.47
2019-02-26T06:03:16.318Z,13.47
2019-02-26T06:08:00.528Z,11.37
2019-02-26T06:12:46.857Z,11.27
2019-02-26T06:17:35.244Z,11.77
2019-02-26T06:22:21.383Z,10.57
2019-02-26T06:27:10.810Z,10.03
2019-02-26T06:31:58.016Z,10.23
2019-02-26T06:36:44.324Z,10.13
2019-02-26T06:41:31.074Z,9.50
2019-02-26T06:46:16.851Z,10.70
2019-02-26T06:51:04.718Z,7.37
2019-02-26T06:55:49.994Z,8.93
2019-02-26T07:00:35.657Z,7.83
2019-02-26T07:05:23.890Z,8.83
2019-02-26T07:10:13.802Z,9.47
2019-02-26T07:14:59.044Z,9.27
2019-02-26T07:19:45.852Z,9.17
2019-02-26T07:24:31.627Z,9.47
2019-02-26T07:29:17.627Z,10.33
2019-02-26T07:34:03.585Z,11.27
2019-02-26T07:38:51.510Z,12.53
2019-02-26T07:43:39.075Z,13.17
2019-02-26T07:48:26.310Z,12.67
2019-02-26T07:53:12.248Z,15.17
2019-02-26T07:57:58.610Z,16.63
2019-02-26T08:02:44.321Z,17.13
2019-02-26T08:07:30.810Z,14.17
2019-02-26T08:12:16.580Z,22.57
2019-02-26T08:17:04.023Z,19.00
2019-02-26T08:21:50.351Z,14.70
2019-02-26T08:26:38.611Z,12.33
2019-02-26T08:31:25.645Z,10.63
2019-02-26T08:36:13.588Z,9.90
2019-02-26T08:40:59.116Z,11.23
2019-02-26T08:45:44.855Z,9.63
2019-02-26T08:50:33.050Z,8.57
2019-02-26T08:55:20.899Z,8.10
2019-02-26T09:00:06.913Z,7.87
2019-02-26T09:04:52.596Z,8.27
2019-02-26T09:09:38.327Z,7.73
2019-02-26T09:14:24.184Z,7.27
2019-02-26T09:19:09.884Z,8.27
2019-02-26T09:23:56.994Z,7.33
2019-02-26T09:28:45.631Z,8.67
2019-02-26T09:33:33.022Z,7.73
2019-02-26T09:38:22.478Z,7.83
2019-02-26T09:43:06.245Z,6.53
2019-02-26T09:47:54.990Z,7.70
2019-02-26T09:52:39.590Z,8.13
2019-02-26T09:57:26.319Z,6.77
2019-02-26T10:02:13.022Z,7.87
2019-02-26T10:06:58.773Z,7.20
2019-02-26T10:11:46.926Z,6.77
2019-02-26T10:16:33.030Z,6.60
2019-02-26T10:21:20.504Z,6.43
2019-02-26T10:26:08.423Z,6.70
2019-02-26T10:30:55.065Z,7.33
2019-02-26T10:35:44.378Z,7.20
2019-02-26T10:40:35.096Z,6.53
2019-02-26T10:45:17.963Z,6.50
2019-02-26T10:50:03.896Z,5.92
2019-02-26T10:54:49.642Z,6.25
2019-02-26T10:59:35.535Z,5.40
2019-02-26T11:04:21.320Z,5.07
2019-02-26T11:09:14.403Z,4.57
2019-02-26T11:13:59.586Z,4.40
2019-02-26T11:18:47.530Z,5.50
2019-02-26T11:23:34.512Z,5.60
2019-02-26T11:28:20.775Z,7.30
2019-02-26T11:33:08.622Z,8.10
2019-02-26T11:37:55.415Z,5.92
2019-02-26T11:42:42.243Z,6.00
2019-02-26T11:47:29.004Z,5.55
2019-02-26T11:52:14.871Z,5.10
2019-02-26T11:57:00.675Z,4.90
2019-02-26T12:01:46.814Z,5.67
2019-02-26T12:06:32.636Z,5.17
2019-02-26T12:11:20.423Z,5.15
2019-02-26T12:16:06.060Z,5.00
2019-02-26T12:20:51.971Z,4.20
2019-02-26T12:25:38.085Z,4.20
2019-02-26T12:30:24.023Z,5.22
2019-02-26T12:35:12.155Z,4.40
2019-02-26T12:39:57.881Z,4.78
2019-02-26T12:44:45.455Z,3.98
2019-02-26T12:49:50.155Z,4.92
2019-02-26T12:54:37.785Z,4.42
2019-02-26T12:59:23.248Z,4.97
2019-02-26T13:04:09.614Z,5.10
2019-02-26T13:08:56.309Z,5.00
2019-02-26T13:13:42.034Z,5.22
2019-02-26T13:18:27.760Z,4.87
2019-02-26T13:23:19.530Z,4.60
2019-02-26T13:28:00.900Z,5.20
2019-02-26T13:33:05.346Z,4.92
2019-02-26T13:37:36.599Z,5.37
2019-02-26T13:42:21.458Z,4.70
2019-02-26T13:47:07.334Z,5.20
2019-02-26T13:51:53.123Z,5.08
2019-02-26T13:56:38.866Z,6.03
2019-02-26T14:01:24.727Z,5.40
2019-02-26T14:06:10.442Z,5.25
2019-02-26T14:10:56.265Z,4.95
2019-02-26T14:15:42.338Z,5.03
2019-02-26T14:20:28.369Z,5.97
2019-02-26T14:25:14.117Z,5.30
2019-02-26T14:29:59.877Z,4.78
2019-02-26T14:34:46.115Z,4.28
2019-02-26T14:39:31.888Z,4.03
2019-02-26T14:44:17.651Z,3.75
2019-02-26T14:49:03.325Z,3.90
2019-02-26T14:53:50.025Z,4.67
2019-02-26T14:58:36.106Z,4.70
2019-02-26T15:03:22.055Z,5.03
2019-02-26T15:08:09.610Z,5.65
2019-02-26T15:12:55.534Z,6.40
2019-02-26T15:17:41.470Z,6.80
2019-02-26T15:22:27.366Z,8.33
2019-02-26T15:27:13.451Z,7.47
2019-02-26T15:31:59.525Z,6.50
2019-02-26T15:36:45.318Z,6.67
2019-02-26T15:41:31.086Z,7.47
2019-02-26T15:46:16.868Z,7.37
2019-02-26T15:51:21.585Z,7.47
2019-02-26T15:56:07.343Z,7.25
2019-02-26T16:00:53.163Z,7.22
2019-02-26T16:05:38.982Z,7.92
2019-02-26T16:10:25.336Z,7.90
2019-02-26T16:15:12.273Z,8.43
2019-02-26T16:19:58.090Z,7.83
2019-02-26T16:24:43.787Z,8.10
2019-02-26T16:29:29.615Z,9.10
2019-02-26T16:34:17.499Z,9.23
2019-02-26T16:39:03.248Z,9.37
2019-02-26T16:43:51.641Z,9.77
2019-02-26T16:48:36.891Z,9.50
2019-02-26T16:53:22.805Z,9.60
2019-02-26T16:58:09.007Z,11.23
2019-02-26T17:02:54.989Z,9.57
2019-02-26T17:07:40.851Z,7.70
2019-02-26T17:12:29.049Z,6.53
2019-02-26T17:17:14.472Z,5.87
2019-02-26T17:22:01.850Z,7.40
2019-02-26T17:26:47.676Z,15.70
2019-02-26T17:31:33.443Z,13.77
2019-02-26T17:36:19.503Z,12.17
2019-02-26T17:41:05.627Z,12.33
2019-02-26T17:45:51.402Z,10.30
2019-02-26T17:50:37.491Z,10.20
2019-02-26T17:55:23.421Z,10.33
2019-02-26T18:00:12.066Z,9.43
2019-02-26T18:04:58.502Z,15.07
2019-02-26T18:09:45.337Z,10.70
2019-02-26T18:14:32.870Z,10.27
2019-02-26T18:19:18.462Z,9.77
2019-02-26T18:24:08.725Z,9.07
2019-02-26T18:28:54.250Z,9.77
2019-02-26T18:33:40.253Z,11.17
2019-02-26T18:38:26.220Z,11.73
2019-02-26T18:43:14.444Z,11.97
2019-02-26T18:47:59.580Z,10.03
2019-02-26T18:52:45.433Z,10.00
2019-02-26T18:57:31.283Z,10.30
2019-02-26T19:02:17.105Z,8.33
2019-02-26T19:07:03.203Z,9.97
2019-02-26T19:11:49.092Z,10.37
2019-02-26T19:16:34.956Z,11.27
2019-02-26T19:21:21.796Z,11.13
2019-02-26T19:26:08.519Z,10.40
2019-02-26T19:30:54.492Z,10.63
2019-02-26T19:35:40.630Z,12.43
2019-02-26T19:40:30.495Z,17.00
2019-02-26T19:45:16.600Z,16.97
2019-02-26T19:50:02.439Z,15.40
2019-02-26T19:54:48.314Z,13.13
2019-02-26T19:59:34.106Z,16.47
2019-02-26T20:04:20.039Z,13.23
2019-02-26T20:09:07.672Z,16.37
2019-02-26T20:13:53.589Z,14.77
2019-02-26T20:18:39.435Z,13.40
2019-02-26T20:23:25.303Z,10.23
2019-02-26T20:28:11.120Z,9.43
2019-02-26T20:32:57.049Z,9.10
2019-02-26T20:37:42.940Z,8.17
2019-02-26T20:42:28.938Z,8.87
2019-02-26T20:47:15.368Z,7.63
2019-02-26T20:52:01.462Z,7.67
2019-02-26T20:56:47.253Z,7.80
2019-02-26T21:01:33.263Z,7.60
2019-02-26T21:06:19.430Z,7.50
2019-02-26T21:11:05.416Z,9.93
2019-02-26T21:15:51.162Z,9.63
2019-02-26T21:20:41.149Z,9.63
2019-02-26T21:25:24.743Z,10.40
2019-02-26T21:30:12.690Z,11.30
2019-02-26T21:34:58.552Z,13.80
2019-02-26T21:39:44.402Z,12.83
2019-02-26T21:44:30.199Z,13.27
2019-02-26T21:49:17.038Z,11.70
2019-02-26T21:54:02.884Z,13.30
2019-02-26T21:58:48.646Z,12.90
2019-02-26T22:03:34.487Z,11.63
2019-02-26T22:08:20.321Z,11.70
2019-02-26T22:13:06.129Z,8.53
2019-02-26T22:17:53.104Z,7.97
2019-02-26T22:22:39.316Z,6.87
2019-02-26T22:27:25.101Z,5.47
2019-02-26T22:32:10.991Z,6.80
2019-02-26T22:36:56.782Z,8.93
2019-02-26T22:41:42.602Z,8.40
2019-02-26T22:46:28.490Z,5.97
2019-02-26T22:51:14.343Z,7.37
2019-02-26T22:56:00.149Z,7.40
2019-02-26T23:01:17.013Z,6.67
2019-02-26T23:06:03.367Z,5.63
2019-02-26T23:10:51.150Z,8.43
2019-02-26T23:15:36.852Z,9.70
2019-02-26T23:20:23.017Z,9.40
2019-02-26T23:25:09.273Z,4.93
2019-02-26T23:29:55.163Z,4.83
2019-02-26T23:34:42.173Z,4.03
2019-02-26T23:39:28.232Z,3.33
2019-02-26T23:44:17.822Z,3.40
2019-02-26T23:49:02.622Z,3.57
2019-02-26T23:53:48.453Z,4.40
2019-02-26T23:58:34.326Z,7.30
